Time;durP1;ratioP1;P1;durP2;ratioP2;P2;SDS_P1;SDS_P2;PMS_P1;PMS_P2;Temp;Humidity;BMP_temperature;BMP_pressure;BME280_temperature;BME280_humidity;BME280_pressure;Samples;Min_cycle;Max_cycle;Signal;HPM_P1;HPM_P2
2022/07/22 00:00:17;;;;;;;3.30;2.70;;;25.80;62.60;;;;;;5031946;28;20060;-76
2022/07/22 00:02:43;;;;;;;4.32;3.10;;;25.80;62.60;;;;;;5031940;28;20033;-76
2022/07/22 00:05:10;;;;;;;3.65;2.90;;;25.80;62.60;;;;;;5030215;28;20596;-76
2022/07/22 00:07:37;;;;;;;4.88;3.00;;;25.90;62.70;;;;;;5031940;28;20452;-76
2022/07/22 00:10:05;;;;;;;4.20;3.03;;;25.90;62.70;;;;;;5031748;28;20438;-76
2022/07/22 00:12:31;;;;;;;3.67;3.08;;;25.80;62.60;;;;;;5030629;28;20466;-76
2022/07/22 00:14:57;;;;;;;4.03;2.72;;;25.80;62.60;;;;;;5030723;28;20026;-76
2022/07/22 00:17:23;;;;;;;3.25;2.70;;;25.80;62.60;;;;;;5031623;28;20028;-76
2022/07/22 00:19:49;;;;;;;3.28;2.70;;;25.80;62.60;;;;;;5031710;28;20071;-76
2022/07/22 00:22:14;;;;;;;3.72;2.80;;;25.80;63.20;;;;;;5030396;28;20640;-76
2022/07/22 00:24:40;;;;;;;4.68;3.17;;;25.80;62.60;;;;;;5031697;28;20108;-76
2022/07/22 00:27:06;;;;;;;4.97;2.72;;;25.80;62.60;;;;;;5031362;28;20075;-76
2022/07/22 00:29:32;;;;;;;3.95;2.90;;;25.80;62.60;;;;;;5030330;28;20036;-76
2022/07/22 00:31:58;;;;;;;3.25;2.75;;;25.90;62.70;;;;;;5030416;28;20030;-76
2022/07/22 00:34:23;;;;;;;3.15;2.45;;;25.80;62.60;;;;;;5031780;28;20474;-76
2022/07/22 00:36:51;;;;;;;4.40;3.03;;;25.80;62.60;;;;;;5031264;28;20105;-76
2022/07/22 00:39:17;;;;;;;4.00;3.00;;;25.80;62.60;;;;;;5031459;28;20134;-76
2022/07/22 00:41:42;;;;;;;4.05;3.05;;;25.80;62.60;;;;;;5030317;28;20025;-76
2022/07/22 00:44:09;;;;;;;3.75;2.78;;;25.80;62.60;;;;;;5031626;28;20335;-77
2022/07/22 00:46:36;;;;;;;3.80;2.67;;;25.80;62.60;;;;;;5030076;28;20029;-76
2022/07/22 00:49:05;;;;;;;3.78;2.63;;;25.80;62.60;;;;;;5029968;28;20043;-76
2022/07/22 00:51:31;;;;;;;4.53;2.90;;;25.80;62.60;;;;;;5031613;28;20482;-76
2022/07/22 00:53:58;;;;;;;3.63;2.60;;;25.80;62.60;;;;;;5030157;28;20026;-77
2022/07/22 00:56:25;;;;;;;3.90;2.67;;;25.80;62.50;;;;;;5013566;28;20116;-76
2022/07/22 00:58:52;;;;;;;4.32;2.78;;;25.80;62.50;;;;;;5030216;28;20026;-76
2022/07/22 01:01:19;;;;;;;3.92;3.03;;;25.90;62.60;;;;;;5030159;28;20029;-76
2022/07/22 01:03:45;;;;;;;4.22;2.83;;;25.80;62.50;;;;;;5030163;28;20030;-76
2022/07/22 01:06:11;;;;;;;4.70;3.10;;;25.80;63.10;;;;;;5013334;28;20480;-76
2022/07/22 01:08:37;;;;;;;4.43;2.92;;;25.80;62.50;;;;;;5013761;28;20120;-76
2022/07/22 01:11:13;;;;;;;3.30;2.65;;;25.90;63.20;;;;;;5030239;28;20439;-76
2022/07/22 01:13:40;;;;;;;3.63;2.63;;;25.80;62.50;;;;;;5029994;28;20036;-76
2022/07/22 01:16:07;;;;;;;4.68;2.88;;;25.80;62.50;;;;;;5030648;28;20037;-76
2022/07/22 01:18:34;;;;;;;3.42;2.70;;;25.80;62.50;;;;;;5033632;28;20030;-76
2022/07/22 01:21:00;;;;;;;3.40;2.50;;;25.80;62.60;;;;;;5033575;28;20492;-76
2022/07/22 01:23:26;;;;;;;3.92;2.70;;;25.80;62.50;;;;;;5033534;28;20037;-76
2022/07/22 01:25:52;;;;;;;4.25;3.00;;;25.80;62.50;;;;;;5033102;28;20477;-76
2022/07/22 01:28:19;;;;;;;4.45;3.08;;;25.80;62.50;;;;;;5033477;28;20055;-77
2022/07/22 01:30:45;;;;;;;3.60;2.53;;;25.80;62.50;;;;;;5033424;28;20363;-76
2022/07/22 01:33:11;;;;;;;4.38;2.83;;;25.80;62.60;;;;;;5033339;28;20029;-76
2022/07/22 01:35:37;;;;;;;4.32;2.60;;;25.80;62.60;;;;;;5032874;28;20083;-76
2022/07/22 01:38:03;;;;;;;4.65;2.70;;;25.90;62.60;;;;;;5034463;28;20026;-76
2022/07/22 01:40:31;;;;;;;4.30;2.92;;;25.80;62.60;;;;;;5033189;28;20029;-76
2022/07/22 01:42:56;;;;;;;4.22;2.67;;;25.80;62.60;;;;;;5033070;28;20076;-76
2022/07/22 01:45:22;;;;;;;3.25;2.70;;;25.80;62.60;;;;;;5032844;28;20108;-76
2022/07/22 01:47:48;;;;;;;5.35;2.75;;;25.80;62.70;;;;;;5033085;28;20432;-76
2022/07/22 01:50:14;;;;;;;3.40;2.70;;;25.80;62.60;;;;;;5016549;28;20440;-76
2022/07/22 01:52:40;;;;;;;3.63;2.72;;;25.80;62.60;;;;;;5033049;28;20132;-76
2022/07/22 01:55:07;;;;;;;3.33;2.75;;;25.80;62.60;;;;;;5016426;28;20112;-76
2022/07/22 01:57:33;;;;;;;3.78;2.42;;;25.80;62.60;;;;;;5016513;28;20546;-76
2022/07/22 02:00:01;;;;;;;5.65;2.60;;;25.80;62.60;;;;;;5032805;28;20064;-76
2022/07/22 02:02:29;;;;;;;3.20;2.38;;;25.80;62.60;;;;;;5033374;28;20033;-76
2022/07/22 02:04:55;;;;;;;4.10;2.92;;;25.80;62.60;;;;;;5032878;28;20504;-76
2022/07/22 02:07:21;;;;;;;4.68;3.00;;;25.80;62.60;;;;;;5016117;28;20033;-76
2022/07/22 02:09:47;;;;;;;3.88;2.38;;;25.80;62.60;;;;;;5016360;28;20029;-76
2022/07/22 02:12:13;;;;;;;3.55;2.60;;;25.80;62.60;;;;;;5032575;28;20025;-76
2022/07/22 02:14:44;;;;;;;3.45;2.67;;;25.80;62.60;;;;;;5032739;28;20025;-76
2022/07/22 02:17:10;;;;;;;4.32;3.00;;;25.80;62.60;;;;;;5015781;28;20478;-76
2022/07/22 02:19:38;;;;;;;2.95;2.55;;;25.80;62.60;;;;;;5032774;28;20105;-76
2022/07/22 02:22:04;;;;;;;3.80;2.63;;;25.80;62.50;;;;;;5032704;28;20389;-76
2022/07/22 02:24:30;;;;;;;3.33;2.30;;;25.80;62.50;;;;;;5016352;28;20033;-75
2022/07/22 02:26:56;;;;;;;4.20;3.08;;;25.80;62.50;;;;;;5031865;28;20519;-77
2022/07/22 02:29:21;;;;;;;3.35;2.45;;;25.80;62.50;;;;;;5032404;28;20499;-77
2022/07/22 02:31:47;;;;;;;3.40;2.45;;;25.80;62.50;;;;;;5032208;28;20382;-77
2022/07/22 02:34:13;;;;;;;2.88;2.33;;;25.80;62.40;;;;;;5032233;28;20028;-77
2022/07/22 02:36:40;;;;;;;3.58;2.40;;;25.80;62.40;;;;;;5015049;28;20425;-76
2022/07/22 02:39:06;;;;;;;3.03;2.58;;;25.80;62.40;;;;;;5015780;28;20476;-77
2022/07/22 02:41:32;;;;;;;3.70;2.63;;;25.80;62.40;;;;;;5032029;28;20059;-77
2022/07/22 02:43:58;;;;;;;3.40;2.53;;;25.80;62.40;;;;;;5032109;28;20021;-76
2022/07/22 02:46:26;;;;;;;3.80;2.80;;;25.80;62.40;;;;;;5031592;28;20543;-76
2022/07/22 02:48:52;;;;;;;3.00;2.53;;;25.80;62.40;;;;;;5032006;28;20025;-76
2022/07/22 02:51:21;;;;;;;3.03;2.40;;;25.80;62.40;;;;;;5032194;28;20386;-76
2022/07/22 02:53:46;;;;;;;3.70;2.70;;;25.80;62.40;;;;;;5031924;28;20034;-77
2022/07/22 02:56:12;;;;;;;3.20;2.40;;;25.80;62.40;;;;;;5031509;28;20040;-76
2022/07/22 02:58:40;;;;;;;2.97;2.30;;;25.80;62.40;;;;;;5015606;28;20026;-76
2022/07/22 03:01:06;;;;;;;3.97;2.60;;;25.80;62.40;;;;;;5015074;28;20478;-77
2022/07/22 03:03:41;;;;;;;3.72;2.75;;;25.80;62.40;;;;;;5031590;28;20405;-77
2022/07/22 03:06:07;;;;;;;4.07;2.78;;;25.80;62.40;;;;;;5031163;28;20033;-76
2022/07/22 03:08:40;;;;;;;3.75;2.63;;;25.80;62.40;;;;;;5031813;28;20033;-77
2022/07/22 03:11:06;;;;;;;3.33;2.53;;;25.80;62.40;;;;;;5031588;28;20032;-77
2022/07/22 03:13:32;;;;;;;3.58;2.78;;;25.80;62.40;;;;;;5031519;28;20109;-77
2022/07/22 03:15:58;;;;;;;3.13;2.30;;;25.80;62.40;;;;;;5014642;28;20105;-76
2022/07/22 03:18:24;;;;;;;3.53;2.47;;;25.80;62.40;;;;;;5031467;28;20533;-77
2022/07/22 03:20:50;;;;;;;4.25;2.95;;;25.80;62.40;;;;;;5031342;28;20029;-77
2022/07/22 03:23:16;;;;;;;5.40;2.75;;;25.80;62.50;;;;;;5014744;28;20091;-76
2022/07/22 03:25:42;;;;;;;3.30;2.45;;;25.80;62.50;;;;;;5014456;28;20068;-76
2022/07/22 03:28:08;;;;;;;3.40;2.80;;;25.80;62.50;;;;;;5032250;28;20108;-77
2022/07/22 03:30:35;;;;;;;3.22;2.42;;;25.80;62.50;;;;;;5031246;28;20100;-77
2022/07/22 03:33:01;;;;;;;3.08;2.45;;;25.80;62.50;;;;;;5014900;28;20112;-77
2022/07/22 03:35:31;;;;;;;3.88;2.83;;;25.80;62.50;;;;;;5014363;28;20079;-77
2022/07/22 03:37:57;;;;;;;2.67;2.40;;;25.80;62.40;;;;;;5014689;28;20524;-77
2022/07/22 03:40:27;;;;;;;2.80;2.40;;;25.80;62.40;;;;;;5030825;28;20036;-77
2022/07/22 03:42:53;;;;;;;4.43;2.33;;;25.80;62.40;;;;;;5031083;28;20029;-77
2022/07/22 03:45:19;;;;;;;3.20;2.60;;;25.80;62.50;;;;;;5014207;28;20026;-77
2022/07/22 03:47:44;;;;;;;3.08;2.38;;;25.80;62.40;;;;;;5014664;28;20030;-77
2022/07/22 03:50:12;;;;;;;3.33;2.30;;;25.80;62.50;;;;;;5030821;28;20125;-77
2022/07/22 03:52:38;;;;;;;3.38;2.60;;;25.80;62.40;;;;;;5031245;28;20026;-77
2022/07/22 03:55:07;;;;;;;2.97;2.42;;;25.80;62.40;;;;;;4998323;28;20033;-76
2022/07/22 03:57:33;;;;;;;3.60;2.72;;;25.80;62.40;;;;;;5014406;28;20104;-77
2022/07/22 04:00:05;;;;;;;3.08;2.40;;;25.80;62.40;;;;;;5014557;28;20048;-77
2022/07/22 04:02:40;;;;;;;4.40;2.65;;;25.80;62.40;;;;;;5030824;28;20034;-77
2022/07/22 04:05:07;;;;;;;3.60;2.50;;;25.80;62.40;;;;;;5030326;28;20038;-77
2022/07/22 04:07:33;;;;;;;4.55;3.03;;;25.80;62.40;;;;;;5030673;28;20038;-77
2022/07/22 04:10:05;;;;;;;3.92;2.53;;;25.80;62.30;;;;;;5030598;28;20036;-76
2022/07/22 04:12:36;;;;;;;3.35;2.38;;;25.80;62.30;;;;;;5014532;28;20470;-76
2022/07/22 04:15:13;;;;;;;3.45;2.60;;;25.80;62.30;;;;;;5030247;28;20108;-76
2022/07/22 04:17:39;;;;;;;2.90;2.25;;;25.80;62.30;;;;;;5014213;28;20167;-76
2022/07/22 04:20:05;;;;;;;3.55;2.83;;;25.80;62.30;;;;;;5030528;28;20079;-77
2022/07/22 04:22:41;;;;;;;3.50;2.63;;;25.80;62.30;;;;;;5030397;28;20029;-76
2022/07/22 04:25:07;;;;;;;3.58;2.67;;;25.80;62.30;;;;;;5013669;28;20477;-76
2022/07/22 04:27:34;;;;;;;3.00;2.47;;;25.80;62.30;;;;;;5030354;28;20025;-76
2022/07/22 04:29:59;;;;;;;3.50;2.90;;;25.80;62.30;;;;;;5030629;28;20068;-76
2022/07/22 04:32:25;;;;;;;3.20;2.40;;;25.80;62.30;;;;;;5030626;28;20021;-77
2022/07/22 04:34:51;;;;;;;3.40;2.45;;;25.80;62.30;;;;;;5030291;28;20397;-76
2022/07/22 04:37:17;;;;;;;4.07;2.90;;;25.80;62.30;;;;;;5029864;28;20029;-77
2022/07/22 04:39:43;;;;;;;3.78;2.70;;;25.80;62.40;;;;;;5014128;28;20100;-76
2022/07/22 04:42:10;;;;;;;3.58;2.35;;;25.80;62.30;;;;;;5013978;28;20037;-76
2022/07/22 04:44:37;;;;;;;3.80;2.70;;;25.80;62.30;;;;;;5030269;28;20046;-76
2022/07/22 04:47:03;;;;;;;4.47;2.92;;;25.80;62.30;;;;;;5029890;28;20034;-77
2022/07/22 04:49:29;;;;;;;3.38;2.47;;;25.80;62.40;;;;;;5030129;28;20461;-77
2022/07/22 04:51:57;;;;;;;3.78;2.95;;;25.80;62.30;;;;;;5032878;28;20042;-76
2022/07/22 04:54:36;;;;;;;3.67;2.65;;;25.80;62.40;;;;;;5017811;28;20025;-76
2022/07/22 04:57:02;;;;;;;3.08;2.60;;;25.80;62.30;;;;;;5000962;28;20029;-76
2022/07/22 04:59:28;;;;;;;3.40;2.60;;;25.80;62.90;;;;;;5017908;28;20146;-76
2022/07/22 05:01:53;;;;;;;3.03;2.65;;;25.70;62.30;;;;;;5034052;28;20061;-76
2022/07/22 05:04:21;;;;;;;3.47;2.70;;;25.80;62.40;;;;;;5033896;28;20513;-76
2022/07/22 05:06:46;;;;;;;7.95;2.65;;;25.80;62.30;;;;;;5033412;28;20037;-76
2022/07/22 05:09:12;;;;;;;3.70;2.53;;;25.70;62.30;;;;;;5034954;28;20036;-76
2022/07/22 05:11:38;;;;;;;3.25;2.65;;;25.80;62.30;;;;;;5033887;28;20139;-76
2022/07/22 05:14:04;;;;;;;3.13;2.58;;;25.80;62.40;;;;;;5033693;28;20025;-76
2022/07/22 05:16:30;;;;;;;3.85;2.65;;;25.80;62.40;;;;;;5033208;28;20036;-76
2022/07/22 05:18:56;;;;;;;3.28;2.53;;;25.80;62.40;;;;;;5033599;28;20025;-76
2022/07/22 05:21:22;;;;;;;3.97;2.60;;;25.80;62.40;;;;;;5033591;28;20036;-77
2022/07/22 05:23:48;;;;;;;3.88;2.70;;;25.70;62.30;;;;;;5033568;28;20496;-77
2022/07/22 05:26:16;;;;;;;4.03;2.95;;;25.80;62.40;;;;;;5033083;28;20073;-76
2022/07/22 05:28:41;;;;;;;3.70;2.75;;;25.80;62.40;;;;;;5033457;28;20053;-77
2022/07/22 05:31:07;;;;;;;3.58;2.50;;;25.80;62.30;;;;;;5033576;28;20417;-76
2022/07/22 05:33:35;;;;;;;3.50;2.80;;;25.80;62.30;;;;;;5033306;28;20593;-77
2022/07/22 05:36:05;;;;;;;3.90;2.72;;;25.80;62.30;;;;;;5032843;28;20029;-76
2022/07/22 05:38:36;;;;;;;3.03;2.35;;;25.80;62.30;;;;;;5033484;28;20412;-77
2022/07/22 05:41:02;;;;;;;5.00;2.78;;;25.80;62.30;;;;;;5033248;28;20087;-77
2022/07/22 05:43:28;;;;;;;3.97;3.00;;;25.80;62.20;;;;;;5033221;28;20059;-77
2022/07/22 05:45:54;;;;;;;3.38;2.83;;;25.80;62.20;;;;;;5032797;28;20473;-77
2022/07/22 05:48:21;;;;;;;2.72;2.42;;;25.80;62.20;;;;;;5033087;28;20366;-76
2022/07/22 05:50:47;;;;;;;3.95;2.80;;;25.80;62.20;;;;;;5033011;28;20025;-77
2022/07/22 05:53:13;;;;;;;3.67;2.60;;;25.80;62.20;;;;;;5032959;28;20021;-77
2022/07/22 05:55:40;;;;;;;3.22;2.47;;;25.80;62.20;;;;;;5032637;28;20385;-77
2022/07/22 05:58:05;;;;;;;3.80;2.80;;;25.80;62.20;;;;;;5032994;28;20032;-77
2022/07/22 06:00:31;;;;;;;3.83;2.80;;;25.80;62.20;;;;;;5033124;28;20033;-77
2022/07/22 06:02:58;;;;;;;3.63;2.70;;;25.80;62.20;;;;;;5016145;28;20075;-77
2022/07/22 06:05:24;;;;;;;4.00;2.88;;;25.80;62.20;;;;;;5032527;28;20025;-77
2022/07/22 06:07:50;;;;;;;3.45;2.70;;;25.80;62.20;;;;;;5032870;28;20053;-77
2022/07/22 06:10:30;;;;;;;3.58;2.30;;;25.80;62.20;;;;;;5032620;28;20485;-77
2022/07/22 06:12:56;;;;;;;3.40;2.70;;;25.80;62.20;;;;;;5032706;28;20029;-77
2022/07/22 06:15:21;;;;;;;3.70;2.83;;;25.80;62.20;;;;;;5032294;28;20382;-77
2022/07/22 06:17:50;;;;;;;3.47;2.78;;;25.80;62.20;;;;;;5033680;28;20390;-77
2022/07/22 06:20:17;;;;;;;3.22;2.70;;;25.80;62.20;;;;;;5032709;28;20510;-76
2022/07/22 06:22:43;;;;;;;3.28;2.58;;;25.80;62.20;;;;;;5032629;28;20628;-76
2022/07/22 06:25:09;;;;;;;3.00;2.40;;;25.80;62.30;;;;;;5032254;28;20240;-76
2022/07/22 06:27:35;;;;;;;3.63;2.80;;;25.80;62.30;;;;;;5016041;28;20026;-76
2022/07/22 06:30:02;;;;;;;3.20;2.50;;;25.80;62.30;;;;;;5032277;28;20033;-76
2022/07/22 06:32:29;;;;;;;4.03;2.90;;;25.80;62.30;;;;;;5032500;28;20117;-76
2022/07/22 06:34:55;;;;;;;3.72;2.85;;;25.80;62.30;;;;;;5032152;28;20521;-76
2022/07/22 06:37:21;;;;;;;4.15;3.00;;;25.80;62.30;;;;;;5015457;28;20120;-76
2022/07/22 06:39:47;;;;;;;3.08;2.47;;;25.80;62.30;;;;;;5032117;28;20121;-76
2022/07/22 06:42:23;;;;;;;3.50;2.78;;;25.80;62.20;;;;;;5032080;28;20470;-76
2022/07/22 06:45:11;;;;;;;4.38;2.67;;;25.80;62.20;;;;;;5013507;28;20131;-76
2022/07/22 06:47:54;;;;;;;3.65;2.63;;;25.80;62.20;;;;;;5032043;28;20072;-76
2022/07/22 06:50:19;;;;;;;3.38;2.60;;;25.70;62.20;;;;;;5015612;28;20065;-76
2022/07/22 06:52:46;;;;;;;4.57;2.90;;;25.80;62.20;;;;;;5031795;28;20032;-77
2022/07/22 06:55:12;;;;;;;3.80;3.17;;;25.80;62.20;;;;;;5031552;28;20032;-76
2022/07/22 06:57:43;;;;;;;3.60;2.70;;;25.80;62.20;;;;;;5031631;28;20478;-76
2022/07/22 07:00:10;;;;;;;3.58;2.75;;;25.80;62.20;;;;;;5031739;28;20025;-76
2022/07/22 07:03:00;;;;;;;2.78;2.17;;;25.70;62.20;;;;;;5032862;28;20473;-76
2022/07/22 07:05:28;;;;;;;3.70;2.60;;;25.80;62.30;;;;;;5031308;28;20091;-76
2022/07/22 07:07:55;;;;;;;3.28;2.60;;;25.80;62.30;;;;;;5031623;28;20354;-76
2022/07/22 07:10:21;;;;;;;4.18;2.92;;;25.80;62.20;;;;;;5031510;28;20030;-76
2022/07/22 07:12:58;;;;;;;2.63;2.30;;;25.80;62.20;;;;;;5031448;28;20055;-77
2022/07/22 07:15:36;;;;;;;4.90;3.00;;;25.80;62.20;;;;;;5030830;28;20087;-76
2022/07/22 07:18:06;;;;;;;3.33;2.55;;;25.80;62.20;;;;;;5031400;28;20044;-76
2022/07/22 07:20:33;;;;;;;3.90;2.88;;;25.80;62.10;;;;;;5031313;28;20048;-76
2022/07/22 07:23:01;;;;;;;3.78;2.90;;;25.80;62.10;;;;;;5031343;28;20060;-76
2022/07/22 07:25:28;;;;;;;2.78;2.38;;;25.90;62.20;;;;;;5030924;28;20044;-76
2022/07/22 07:27:55;;;;;;;2.90;2.50;;;25.80;62.10;;;;;;5031387;28;20025;-74
2022/07/22 07:30:32;;;;;;;3.40;2.70;;;25.90;62.10;;;;;;5031141;28;20124;-74
2022/07/22 07:33:00;;;;;;;3.25;2.42;;;25.90;62.10;;;;;;5031066;28;20105;-74
2022/07/22 07:35:26;;;;;;;3.50;2.67;;;25.90;62.10;;;;;;5030997;28;20501;-74
2022/07/22 07:37:53;;;;;;;3.20;2.67;;;25.80;62.10;;;;;;5014726;28;20071;-74
2022/07/22 07:40:19;;;;;;;3.50;2.40;;;25.90;62.10;;;;;;5031010;28;20040;-74
2022/07/22 07:42:45;;;;;;;3.30;2.60;;;25.90;62.20;;;;;;5030986;28;20166;-74
2022/07/22 07:45:12;;;;;;;3.53;2.67;;;25.90;62.20;;;;;;5030656;28;20074;-74
2022/07/22 07:47:38;;;;;;;3.42;2.70;;;25.90;62.20;;;;;;5030714;28;20072;-73
2022/07/22 07:50:07;;;;;;;4.32;3.10;;;25.80;62.10;;;;;;5030795;28;20041;-73
2022/07/22 07:52:40;;;;;;;4.07;2.95;;;25.90;62.30;;;;;;5030894;28;20026;-74
2022/07/22 07:55:08;;;;;;;3.28;2.38;;;25.90;62.30;;;;;;5014471;28;20127;-73
2022/07/22 07:57:35;;;;;;;2.95;2.45;;;25.80;62.20;;;;;;5014430;28;20029;-74
2022/07/22 08:00:05;;;;;;;3.22;2.53;;;25.90;62.30;;;;;;5030667;28;20033;-74
2022/07/22 08:02:39;;;;;;;3.42;2.50;;;25.90;62.30;;;;;;5031914;28;20394;-74
2022/07/22 08:05:09;;;;;;;3.08;2.58;;;25.90;62.30;;;;;;5030438;28;20040;-74
2022/07/22 08:07:36;;;;;;;3.08;2.40;;;25.90;62.30;;;;;;5014529;28;20489;-73
2022/07/22 08:10:04;;;;;;;3.60;2.55;;;25.90;62.40;;;;;;5030589;28;20041;-74
2022/07/22 08:12:49;;;;;;;3.72;2.70;;;25.90;62.30;;;;;;5031711;28;20029;-74
2022/07/22 08:15:34;;;;;;;3.60;2.55;;;25.80;62.30;;;;;;5031385;28;20026;-74
2022/07/22 08:18:06;;;;;;;3.70;2.80;;;25.80;62.30;;;;;;5030741;28;20029;-73
2022/07/22 08:20:32;;;;;;;3.58;2.67;;;25.80;62.40;;;;;;5031983;28;20497;-73
2022/07/22 08:22:58;;;;;;;3.72;2.83;;;25.90;62.40;;;;;;5030544;28;20485;-74
2022/07/22 08:25:27;;;;;;;3.83;2.78;;;25.80;62.40;;;;;;5015857;28;20029;-73
2022/07/22 08:27:53;;;;;;;3.90;2.80;;;25.80;62.40;;;;;;5018118;28;20087;-74
2022/07/22 08:30:19;;;;;;;2.97;2.50;;;25.80;62.40;;;;;;5034431;28;20033;-74
2022/07/22 08:32:46;;;;;;;2.92;2.28;;;25.80;62.40;;;;;;5034508;28;20018;-74
2022/07/22 08:35:12;;;;;;;3.63;2.90;;;25.80;62.40;;;;;;5035362;28;20516;-74
2022/07/22 08:37:38;;;;;;;3.13;2.53;;;25.80;62.40;;;;;;5034162;28;20037;-74
2022/07/22 08:40:08;;;;;;;3.55;2.70;;;25.80;62.40;;;;;;5034503;28;20044;-74
2022/07/22 08:42:41;;;;;;;;;;;25.80;62.40;;;;;;5018438;28;20120;-74
2022/07/22 08:45:09;;;;;;;2.80;2.42;;;25.80;62.40;;;;;;5017558;28;19920;-75
2022/07/22 08:47:36;;;;;;;3.85;2.60;;;25.80;62.40;;;;;;5017895;28;20037;-75
2022/07/22 08:50:20;;;;;;;3.83;2.60;;;25.80;62.40;;;;;;5033925;28;20446;-74
2022/07/22 08:52:59;;;;;;;4.22;2.63;;;25.80;62.40;;;;;;5034519;28;20076;-75
2022/07/22 08:55:25;;;;;;;3.83;2.58;;;25.80;62.40;;;;;;5033812;28;20021;-75
2022/07/22 08:57:51;;;;;;;3.40;2.60;;;25.80;62.40;;;;;;5017316;28;20033;-75
2022/07/22 09:00:22;;;;;;;2.90;2.28;;;25.80;62.40;;;;;;5034033;28;20044;-74
2022/07/22 09:02:49;;;;;;;3.28;2.47;;;25.80;62.30;;;;;;5034042;28;20037;-74
2022/07/22 09:05:16;;;;;;;3.42;2.67;;;25.80;62.30;;;;;;5033679;28;20481;-75
2022/07/22 09:07:44;;;;;;;2.97;2.60;;;25.80;62.30;;;;;;5033854;28;20080;-74
2022/07/22 09:10:19;;;;;;;3.92;2.80;;;25.80;62.40;;;;;;5033744;28;20037;-75
2022/07/22 09:13:16;;;;;;;3.28;2.65;;;25.80;62.40;;;;;;4981667;28;20042;-75
2022/07/22 09:15:54;;;;;;;3.45;2.67;;;25.80;62.40;;;;;;5033375;28;20025;-75
2022/07/22 09:18:53;;;;;;;3.55;2.50;;;25.80;62.40;;;;;;5034118;28;20036;-75
2022/07/22 09:21:31;;;;;;;4.40;2.70;;;25.80;62.30;;;;;;5033725;28;20033;-75
2022/07/22 09:24:30;;;;;;;3.17;2.50;;;25.80;62.30;;;;;;5033765;28;20396;-75
2022/07/22 09:27:08;;;;;;;3.55;2.63;;;25.80;62.30;;;;;;5033101;28;20030;-75
2022/07/22 09:29:53;;;;;;;3.47;2.72;;;25.80;62.40;;;;;;5033288;28;20104;-76
2022/07/22 09:32:21;;;;;;;3.55;2.80;;;25.80;62.40;;;;;;5033460;28;20075;-76
2022/07/22 09:35:11;;;;;;;4.60;3.00;;;25.80;62.40;;;;;;5034080;28;20477;-76
2022/07/22 09:38:04;;;;;;;3.40;2.50;;;25.80;62.40;;;;;;5032514;28;20039;-76
2022/07/22 09:40:36;;;;;;;3.80;2.63;;;25.80;62.40;;;;;;5033305;28;20496;-76
2022/07/22 09:43:04;;;;;;;4.75;3.08;;;25.80;62.40;;;;;;5033323;28;20036;-76
2022/07/22 09:45:31;;;;;;;2.75;2.28;;;25.80;62.40;;;;;;5034139;28;20021;-75
2022/07/22 09:47:59;;;;;;;3.40;2.50;;;25.80;62.40;;;;;;5033047;28;20033;-76
2022/07/22 09:50:27;;;;;;;3.78;2.80;;;25.80;62.40;;;;;;5032998;28;20068;-76
2022/07/22 09:53:17;;;;;;;3.30;2.50;;;25.80;62.40;;;;;;5033113;28;20060;-76
2022/07/22 09:55:54;;;;;;;3.22;2.42;;;25.80;62.40;;;;;;5032634;28;20389;-76
2022/07/22 09:58:23;;;;;;;3.35;2.50;;;25.80;62.40;;;;;;5016485;28;20052;-76
2022/07/22 10:00:51;;;;;;;3.10;2.40;;;25.80;62.40;;;;;;5032814;28;20033;-75
2022/07/22 10:03:32;;;;;;;3.63;2.53;;;25.80;62.40;;;;;;5017024;28;20038;-76
2022/07/22 10:06:09;;;;;;;3.17;2.50;;;25.80;62.40;;;;;;5016199;28;20029;-77
2022/07/22 10:08:39;;;;;;;4.05;2.83;;;25.80;62.40;;;;;;5032710;28;20044;-75
2022/07/22 10:11:08;;;;;;;3.25;2.70;;;25.80;62.40;;;;;;5033890;28;20048;-75
2022/07/22 10:13:38;;;;;;;3.03;2.53;;;25.80;62.30;;;;;;5016664;28;20084;-75
2022/07/22 10:16:14;;;;;;;3.42;2.38;;;25.80;62.30;;;;;;5032459;28;20036;-75
2022/07/22 10:18:45;;;;;;;3.67;2.50;;;25.80;62.40;;;;;;5016245;28;20041;-76
2022/07/22 10:21:11;;;;;;;4.03;3.10;;;25.80;62.30;;;;;;4999772;28;20065;-76
2022/07/22 10:24:18;;;;;;;3.35;2.55;;;25.80;62.30;;;;;;5032573;28;20063;-76
2022/07/22 10:26:56;;;;;;;3.88;2.70;;;25.80;62.30;;;;;;5032123;28;20033;-76
2022/07/22 10:29:32;;;;;;;2.88;2.20;;;25.80;62.30;;;;;;5032499;28;20030;-77
2022/07/22 10:32:22;;;;;;;3.77;2.50;;;25.80;62.30;;;;;;5032371;28;20057;-77
2022/07/22 10:35:21;;;;;;;3.28;2.53;;;25.80;62.20;;;;;;5033444;28;20405;-76
2022/07/22 10:37:49;;;;;;;3.08;2.35;;;25.80;62.30;;;;;;5015707;28;20029;-77
2022/07/22 10:40:23;;;;;;;2.88;2.33;;;25.90;62.30;;;;;;5033445;28;20120;-77
2022/07/22 10:43:00;;;;;;;2.78;2.33;;;25.80;62.10;;;;;;5015403;28;20030;-76
2022/07/22 10:45:28;;;;;;;3.40;2.80;;;25.80;62.20;;;;;;5033004;28;20132;-76
2022/07/22 10:47:55;;;;;;;3.20;2.60;;;25.90;62.30;;;;;;5031639;28;20040;-76
2022/07/22 10:50:39;;;;;;;3.45;2.75;;;25.90;62.30;;;;;;5031367;28;20068;-77
2022/07/22 10:53:11;;;;;;;2.97;2.33;;;25.90;62.30;;;;;;5033054;28;20029;-76
2022/07/22 10:55:38;;;;;;;3.40;2.58;;;25.90;62.20;;;;;;5031479;28;20387;-76
2022/07/22 10:58:39;;;;;;;2.45;2.10;;;25.90;62.20;;;;;;5033039;28;20021;-76
2022/07/22 11:01:08;;;;;;;3.33;2.60;;;25.90;62.20;;;;;;5032963;28;20470;-76
2022/07/22 11:03:36;;;;;;;3.40;2.35;;;25.90;62.30;;;;;;5031952;28;20470;-76
2022/07/22 11:06:21;;;;;;;3.67;2.70;;;25.90;62.40;;;;;;5032444;28;20549;-76
2022/07/22 11:08:50;;;;;;;3.30;2.42;;;25.90;62.30;;;;;;5032742;28;20120;-76
2022/07/22 11:11:17;;;;;;;3.22;2.50;;;25.80;62.30;;;;;;5032759;28;20496;-76
2022/07/22 11:13:44;;;;;;;2.90;2.33;;;25.80;62.30;;;;;;5032860;28;20118;-76
2022/07/22 11:16:23;;;;;;;3.17;2.50;;;25.80;62.30;;;;;;5032268;28;20032;-76
2022/07/22 11:19:00;;;;;;;2.95;2.38;;;25.80;62.30;;;;;;5031706;28;20424;-76
2022/07/22 11:21:28;;;;;;;3.65;2.65;;;25.80;62.30;;;;;;5031444;28;20478;-76
2022/07/22 11:23:59;;;;;;;2.95;2.30;;;25.80;62.30;;;;;;5032532;28;20374;-75
2022/07/22 11:26:37;;;;;;;3.25;2.33;;;25.80;62.30;;;;;;5032029;28;20028;-76
2022/07/22 11:29:03;;;;;;;3.33;2.55;;;25.80;62.30;;;;;;5031210;28;20079;-77
2022/07/22 11:31:29;;;;;;;3.17;2.50;;;25.80;62.30;;;;;;5031209;28;20494;-77
2022/07/22 11:34:10;;;;;;;3.22;2.50;;;25.80;62.30;;;;;;5031151;28;20036;-76
2022/07/22 11:36:39;;;;;;;3.05;2.40;;;25.80;62.30;;;;;;5030766;28;20112;-76
2022/07/22 11:39:06;;;;;;;2.95;2.47;;;25.80;62.30;;;;;;5032097;28;20179;-77
2022/07/22 11:41:32;;;;;;;3.05;2.22;;;25.80;62.30;;;;;;5032585;28;20163;-77
2022/07/22 11:43:59;;;;;;;3.15;2.35;;;25.80;62.30;;;;;;5014530;28;20033;-77
2022/07/22 11:46:25;;;;;;;2.40;1.98;;;25.80;62.30;;;;;;5030590;28;20492;-77
2022/07/22 11:48:53;;;;;;;3.88;2.60;;;25.80;62.30;;;;;;5030970;28;20281;-76
2022/07/22 11:51:19;;;;;;;2.80;2.50;;;25.80;62.30;;;;;;5032079;28;20033;-76
2022/07/22 11:53:45;;;;;;;2.70;2.15;;;25.80;62.30;;;;;;5030726;28;20084;-77
2022/07/22 11:56:11;;;;;;;2.45;2.17;;;25.80;62.30;;;;;;5030899;28;20053;-76
2022/07/22 11:58:39;;;;;;;2.75;2.25;;;25.80;62.30;;;;;;5030934;28;20040;-76
2022/07/22 12:01:06;;;;;;;3.28;2.65;;;25.80;62.30;;;;;;5030424;28;20164;-76
2022/07/22 12:03:34;;;;;;;3.63;2.70;;;25.80;62.20;;;;;;5031967;28;20033;-76
2022/07/22 12:06:02;;;;;;;3.30;2.63;;;25.80;62.20;;;;;;5013696;28;20478;-76
2022/07/22 12:08:28;;;;;;;3.33;2.50;;;25.80;62.20;;;;;;5031764;28;20031;-76
2022/07/22 12:10:59;;;;;;;2.85;2.17;;;25.80;62.30;;;;;;5030918;28;20084;-76
2022/07/22 12:13:30;;;;;;;3.30;2.47;;;25.90;62.40;;;;;;5031831;28;20025;-76
2022/07/22 12:15:57;;;;;;;3.95;2.50;;;25.80;62.30;;;;;;5014358;28;20039;-76
2022/07/22 12:18:26;;;;;;;3.33;2.33;;;25.90;62.30;;;;;;5031842;28;20060;-76
2022/07/22 12:20:54;;;;;;;3.33;2.40;;;25.90;62.30;;;;;;5030648;28;20032;-76
2022/07/22 12:23:26;;;;;;;2.75;2.40;;;25.90;62.30;;;;;;5030509;28;20032;-76
2022/07/22 12:26:00;;;;;;;4.28;2.50;;;25.90;62.30;;;;;;5013741;28;20021;-76
2022/07/22 12:28:27;;;;;;;3.13;2.30;;;25.90;62.30;;;;;;5014238;28;20080;-76
2022/07/22 12:30:55;;;;;;;3.00;2.40;;;25.90;62.40;;;;;;5031661;28;20104;-76
2022/07/22 12:33:22;;;;;;;3.20;2.53;;;25.90;62.30;;;;;;5030460;28;20061;-76
2022/07/22 12:36:06;;;;;;;2.53;2.10;;;25.90;62.40;;;;;;5029886;28;20540;-76
2022/07/22 12:38:33;;;;;;;3.67;2.63;;;25.90;62.40;;;;;;5030488;28;20041;-76
2022/07/22 12:41:25;;;;;;;3.03;2.40;;;25.80;62.40;;;;;;5014132;28;20036;-76
2022/07/22 12:43:51;;;;;;;2.92;2.20;;;25.80;62.40;;;;;;5031611;28;20032;-76
2022/07/22 12:46:17;;;;;;;3.95;2.70;;;25.80;62.30;;;;;;5030208;28;20030;-76
2022/07/22 12:48:54;;;;;;;3.33;2.55;;;25.80;62.40;;;;;;5030228;28;20043;-76
2022/07/22 12:51:20;;;;;;;3.25;2.42;;;25.80;62.40;;;;;;5031603;28;20057;-77
2022/07/22 12:53:46;;;;;;;2.92;2.20;;;25.90;62.40;;;;;;5030244;28;20068;-75
2022/07/22 12:56:12;;;;;;;2.83;2.28;;;25.80;62.40;;;;;;5029775;28;20061;-75
2022/07/22 12:58:40;;;;;;;3.15;2.30;;;25.90;62.40;;;;;;5031465;28;20029;-75